»·PEaware :: WAT440 KSNA-KLAS

WAT440 :: KSNA-KLAS

FLIGHT INFORMATION

Flight Status: Arrived
Operator:
Walker Air Transport
More flights by this operator :: More flights under this callsign
Pilot: Anthony S. (1624)
Aircraft: BOEING 737-700
(B737)
More flights by this aircraft type
Origin: KSNA John Wayne-Orange Co
United States
Destination: KLAS Harry Reid Intl
United States
More flights between these airports :: More routes between these airports
Route: FINZZ3 MISEN KEPEC6
File this flight plan on PilotEdge
Remarks: BAGELS RULE! AS > AW
Altitude:
(Current/Filed)
27,000ft
Speed:
(Current/Filed)
459kts
Departed: 06-Dec-20 07:57 PM
Arrived: 06-Dec-20 09:20 PM
Distance/Time
Traveled:
197nm/1:23
Distance/Time
To Go:
Arrived

Flight Plot

Page will automatically refresh every two minutes.

Flight plan parsing failed; only flown route is shown


Map Options




Map Legend


Flown Route
Filed Route
Departure Airport
Arrival Airport
Navaid (VOR, NDB)
Fix

Horizontal Profiles

Position Reports

Time Latitude Longitude Heading Altitude Ground
Speed
06-Dec-20 19:19 33.676820 -117.863940 119 64ft 0kts
06-Dec-20 19:20 33.676820 -117.863940 119 64ft 0kts
06-Dec-20 19:21 33.676820 -117.863940 119 64ft 0kts
06-Dec-20 19:22 33.676820 -117.863940 119 64ft 0kts
06-Dec-20 19:23 33.676820 -117.863940 119 64ft 0kts
06-Dec-20 19:24 33.676820 -117.863940 119 64ft 0kts
06-Dec-20 19:25 33.676820 -117.863940 119 64ft 0kts
06-Dec-20 19:26 33.676820 -117.863940 119 64ft 0kts
06-Dec-20 19:27 33.676820 -117.863940 119 64ft 0kts
06-Dec-20 19:28 33.676820 -117.863940 119 64ft 0kts
06-Dec-20 19:29 33.676820 -117.863940 119 64ft 0kts
06-Dec-20 19:30 33.676820 -117.863940 119 64ft 0kts
06-Dec-20 19:31 33.676820 -117.863940 119 64ft 0kts
06-Dec-20 19:32 33.676820 -117.863940 119 64ft 0kts
06-Dec-20 19:33 33.676820 -117.863940 119 64ft 0kts
06-Dec-20 19:34 33.676820 -117.863940 119 64ft 0kts
06-Dec-20 19:35 33.676820 -117.863940 119 64ft 0kts
06-Dec-20 19:36 33.676820 -117.863940 119 64ft 0kts
06-Dec-20 19:37 33.676820 -117.863940 119 64ft 0kts
06-Dec-20 19:38 33.676820 -117.863940 119 64ft 0kts
06-Dec-20 19:39 33.676997 -117.864323 119 63ft 3kts
06-Dec-20 19:40 33.677248 -117.864860 120 64ft 0kts
06-Dec-20 19:41 33.677255 -117.864872 116 64ft 0kts
06-Dec-20 19:42 33.677143 -117.864559 109 64ft 9kts
06-Dec-20 19:43 33.677086 -117.864236 94 64ft 0kts
06-Dec-20 19:44 33.677086 -117.864236 94 64ft 0kts
06-Dec-20 19:45 33.677103 -117.864229 15 64ft 2kts
06-Dec-20 19:46 33.677486 -117.864136 10 64ft 0kts
06-Dec-20 19:47 33.677486 -117.864136 10 64ft 0kts
06-Dec-20 19:48 33.677486 -117.864136 10 64ft 0kts
06-Dec-20 19:49 33.677486 -117.864136 10 64ft 0kts
06-Dec-20 19:50 33.677486 -117.864136 10 64ft 0kts
06-Dec-20 19:51 33.677486 -117.864136 10 64ft 0kts
06-Dec-20 19:52 33.680041 -117.862724 27 64ft 0kts
06-Dec-20 19:53 33.680242 -117.862662 334 64ft 0kts
06-Dec-20 19:54 33.681272 -117.864606 295 64ft 6kts
06-Dec-20 19:55 33.679973 -117.866567 189 64ft 18kts
06-Dec-20 19:56 33.657315 -117.880106 207 1795ft 113kts
06-Dec-20 19:57 33.621711 -117.868504 59 1834ft 244kts
06-Dec-20 20:04 33.676825 -117.863952 119 64ft 0kts
06-Dec-20 20:05 33.676825 -117.863952 119 64ft 0kts
06-Dec-20 20:06 33.676825 -117.863952 119 64ft 0kts
06-Dec-20 20:07 33.676825 -117.863952 119 64ft 0kts
06-Dec-20 20:08 33.676825 -117.863952 119 64ft 0kts
06-Dec-20 20:09 33.676825 -117.863952 119 64ft 0kts
06-Dec-20 20:10 33.676825 -117.863952 119 64ft 0kts
06-Dec-20 20:11 33.676825 -117.863952 119 64ft 0kts
06-Dec-20 20:12 33.676825 -117.863952 119 64ft 0kts
06-Dec-20 20:13 33.676825 -117.863952 119 64ft 0kts
06-Dec-20 20:14 33.676825 -117.863952 119 64ft 0kts
06-Dec-20 20:15 33.676825 -117.863952 119 64ft 0kts
06-Dec-20 20:16 33.677089 -117.864520 119 63ft 3kts
06-Dec-20 20:17 33.677094 -117.864518 114 64ft 2kts
06-Dec-20 20:18 33.679115 -117.863415 20 64ft 18kts
06-Dec-20 20:19 33.680465 -117.862841 352 64ft 0kts
06-Dec-20 20:21 33.680465 -117.862841 352 64ft 0kts
06-Dec-20 20:22 33.680602 -117.862903 327 64ft 0kts
06-Dec-20 20:23 33.680856 -117.863454 295 64ft 17kts
06-Dec-20 20:24 33.661037 -117.877899 207 778ft 179kts
06-Dec-20 20:25 33.620372 -117.895981 188 3350ft 177kts
06-Dec-20 20:26 33.566621 -117.910229 213 4978ft 226kts
06-Dec-20 20:27 33.514183 -117.968221 240 7890ft 290kts
06-Dec-20 20:28 33.531716 -118.068606 312 7995ft 322kts
06-Dec-20 20:29 33.603340 -118.106145 358 7998ft 276kts
06-Dec-20 20:30 33.678166 -118.078056 24 10433ft 301kts
06-Dec-20 20:31 33.759378 -118.030685 23 13353ft 340kts
06-Dec-20 20:32 33.846356 -117.979914 21 16604ft 357kts
06-Dec-20 20:33 33.934257 -117.919974 31 19679ft 376kts
06-Dec-20 20:34 34.018119 -117.842570 29 22534ft 385kts
06-Dec-20 20:34 34.088543 -117.775689 36 24744ft 397kts
06-Dec-20 20:36 34.172887 -117.653765 41 27139ft 416kts
06-Dec-20 20:37 34.247889 -117.542260 42 27165ft 429kts
06-Dec-20 20:37 34.310229 -117.449315 42 27186ft 427kts
06-Dec-20 20:39 34.397360 -117.318844 42 27195ft 428kts
06-Dec-20 20:39 34.459700 -117.225341 42 27190ft 428kts
06-Dec-20 20:41 34.546801 -117.094331 42 27196ft 429kts
06-Dec-20 20:41 34.611408 -117.000386 42 27204ft 439kts
06-Dec-20 20:42 34.689978 -116.885758 43 27207ft 447kts
06-Dec-20 20:43 34.769645 -116.769141 43 27210ft 447kts
06-Dec-20 20:44 34.849185 -116.653570 38 27209ft 437kts
06-Dec-20 20:45 34.941563 -116.560095 31 27211ft 435kts
06-Dec-20 20:46 35.036094 -116.468396 31 26058ft 429kts
06-Dec-20 20:47 35.125759 -116.375003 39 24248ft 431kts
06-Dec-20 20:48 35.210210 -116.268890 40 24217ft 434kts
06-Dec-20 20:49 35.294415 -116.163176 40 24140ft 429kts
06-Dec-20 20:50 35.375495 -116.061064 41 21462ft 424kts
06-Dec-20 20:51 35.456581 -115.958596 43 18768ft 412kts
06-Dec-20 20:52 35.534669 -115.859639 44 16260ft 397kts
06-Dec-20 20:53 35.609705 -115.764268 45 13921ft 378kts
06-Dec-20 20:54 35.677854 -115.677365 45 13032ft 329kts
06-Dec-20 20:55 35.741756 -115.601397 31 13001ft 320kts
06-Dec-20 20:56 35.825302 -115.571785 0 13000ft 314kts
06-Dec-20 20:57 35.912179 -115.564228 11 12998ft 315kts
06-Dec-20 20:58 35.983882 -115.505680 56 12520ft 308kts
06-Dec-20 20:59 36.019781 -115.411309 69 11229ft 294kts
06-Dec-20 21:00 36.026757 -115.316909 96 10385ft 270kts
06-Dec-20 21:01 36.020156 -115.225683 98 9274ft 262kts
06-Dec-20 21:03 36.013017 -115.120544 97 8207ft 253kts
06-Dec-20 21:03 36.008510 -115.051448 95 7986ft 239kts
06-Dec-20 21:04 36.003672 -114.969179 95 7983ft 239kts
06-Dec-20 21:05 35.998764 -114.887316 95 7987ft 239kts
06-Dec-20 21:06 35.993156 -114.797745 95 7993ft 255kts
06-Dec-20 21:07 35.987759 -114.715882 95 7998ft 226kts
06-Dec-20 21:08 35.986190 -114.638130 70 8007ft 229kts
06-Dec-20 21:09 36.039754 -114.605053 337 7997ft 240kts
06-Dec-20 21:10 36.067237 -114.656456 275 8012ft 164kts
06-Dec-20 21:11 36.071886 -114.712546 271 8011ft 163kts
06-Dec-20 21:12 36.072860 -114.771295 269 7733ft 173kts
06-Dec-20 21:13 36.073184 -114.830429 269 6861ft 170kts
06-Dec-20 21:14 36.073354 -114.888403 270 5918ft 166kts
06-Dec-20 21:15 36.073467 -114.946379 271 4962ft 174kts
06-Dec-20 21:16 36.073578 -115.004209 270 4030ft 160kts
06-Dec-20 21:17 36.073628 -115.057303 270 3180ft 151kts
06-Dec-20 21:18 36.073649 -115.106435 270 2392ft 138kts
06-Dec-20 21:19 36.073611 -115.149856 270 2119ft 27kts
06-Dec-20 21:20 36.076037 -115.157054 313 2143ft 33kts
06-Dec-20 21:21 36.078068 -115.156927 88 2138ft 27kts
06-Dec-20 21:22 36.078271 -115.148265 6 2104ft 3kts
06-Dec-20 21:23 36.080223 -115.147578 65 2097ft 3kts

Navigation Log

Ident Type
Flight plan parsing failed, navigation log unavailable